Celebrity Mercury — 9HJG9 — position and weather

sailwx.info

Track history (hours):
 
Tides and Currents Weather Stations Pressure Air Temp Water Temp Dewpoint Dewpoint Depression Visibility Wind Speed Wind Dir Waves Ship Positions

Celebrity Mercury

Last reported at 2018-May-21 06:14 UTC. Time now 2018-May-22 13:50 UTC.
Position N 44°06' E 014°02'.

Length 264 m; draft 8.5 m.

Type: Ship. MMSI: 249053000.

Date/timePositionNaut miles runAvg speedWind from/ knotsBaromVisibWave heightAir tempDewpointWater temp
2018-May-21 06:14N 44°06' E 014°02'913.3
2018-May-21 05:35N 44°13' E 013°55'113.5
2018-May-21 05:30N 44°14' E 013°55'713.5
2018-May-21 04:59N 44°20' E 013°49'613.3
2018-May-21 04:30N 44°26' E 013°44'613.1
2018-May-21 04:00N 44°31' E 013°39'613.0
2018-May-21 03:30N 44°36' E 013°34'612.7
2018-May-21 03:00N 44°42' E 013°29'612.5
2018-May-21 02:30N 44°47' E 013°25'612.7
2018-May-21 02:00N 44°52' E 013°20'612.9
2018-May-21 01:30N 44°58' E 013°15'613.0
2018-May-21 01:00N 45°03' E 013°09'713.0
2018-May-21 00:30N 45°08' E 013°04'713.1
2018-May-21 00:00N 45°14' E 013°02'713.1
2018-May-20 23:30N 45°21' E 012°59'612.1
2018-May-20 23:00N 45°26' E 013°04'713.3
2018-May-20 22:30N 45°30' E 013°11'713.2
2018-May-20 22:00N 45°34' E 013°19'713.5
2018-May-20 21:30N 45°36' E 013°28'713.3
2018-May-20 21:00N 45°39' E 013°37'510.6
2018-May-20 20:30N 45°39' E 013°45'1 1.5
2018-May-20 19:56N 45°39' E 013°46'0 0.0
2018-May-20 19:29N 45°39' E 013°46'0 0.0
2018-May-20 18:59N 45°39' E 013°46'0 0.0
2018-May-20 18:26N 45°39' E 013°46'0 0.0
2018-May-20 17:59N 45°39' E 013°46'0 0.0
2018-May-20 17:29N 45°39' E 013°46'0 0.0
2018-May-20 16:59N 45°39' E 013°46'0 0.0
2018-May-20 16:29N 45°39' E 013°46'0 0.0
2018-May-20 15:52N 45°39' E 013°46'0 0.0
2018-May-20 15:28N 45°39' E 013°46'0 0.0
2018-May-20 14:58N 45°39' E 013°46'0 0.0
2018-May-20 14:28N 45°39' E 013°46'0 0.0
2018-May-20 13:55N 45°39' E 013°46'0 0.0
2018-May-20 13:25N 45°39' E 013°46'0 0.0
2018-May-20 12:58N 45°39' E 013°46'0 0.0
2018-May-20 12:28N 45°39' E 013°46'0 0.0
2018-May-20 11:58N 45°39' E 013°46'0 0.0
2018-May-20 11:22N 45°39' E 013°46'0 0.0
2018-May-20 10:58N 45°39' E 013°46'0 0.0
2018-May-20 10:28N 45°39' E 013°46'0 0.0
2018-May-20 09:55N 45°39' E 013°46'0 0.0
2018-May-20 09:25N 45°39' E 013°46'0 0.0
2018-May-20 08:58N 45°39' E 013°46'0 0.0
2018-May-20 08:28N 45°39' E 013°46'0 0.0
2018-May-20 08:00N 45°39' E 013°46'0 0.0
2018-May-20 07:27N 45°39' E 013°46'0 0.0
2018-May-20 07:00N 45°39' E 013°46'0 0.0
2018-May-20 06:30N 45°39' E 013°46'0 0.0
2018-May-20 06:00N 45°39' E 013°46'0 0.0
2018-May-20 05:09N 45°39' E 013°46'0 0.0
2018-May-20 05:00N 45°39' E 013°46'0 0.0
2018-May-20 04:26N 45°39' E 013°46'0 0.0
2018-May-20 03:57N 45°39' E 013°46'0 0.0
2018-May-20 03:25N 45°39' E 013°46'0 0.0
2018-May-20 02:57N 45°39' E 013°46'0 0.0
2018-May-20 02:27N 45°39' E 013°46'0 0.2
2018-May-20 02:00N 45°39' E 013°46'3 5.8
2018-May-20 01:30N 45°39' E 013°42'4 9.0
2018-May-20 01:00N 45°37' E 013°36'815.5
2018-May-20 00:30N 45°33' E 013°26'815.6
2018-May-20 00:00N 45°28' E 013°18'815.7
2018-May-19 23:30N 45°22' E 013°11'816.1
2018-May-19 23:00N 45°14' E 013°11'815.5
2018-May-19 22:30N 45°06' E 013°10'815.9
2018-May-19 22:00N 44°60' E 013°03'815.9
2018-May-19 21:30N 44°54' E 012°56'815.9
2018-May-19 21:00N 44°48' E 012°49'815.9
2018-May-19 20:30N 44°40' E 012°44'56 3.0
2018-May-19 02:08N 44°16' E 013°54'518.7
2018-May-19 01:53N 44°18' E 014°00'818.5
2018-May-19 01:28N 44°20' E 014°10'  
2018-May-14 04:13N 44°07' E 014°01'716.3
2018-May-14 03:48N 44°13' E 013°56'516.4
2018-May-14 03:30N 44°17' E 013°52'816.6
2018-May-14 03:01N 44°24' E 013°46'816.6
2018-May-14 02:30N 44°31' E 013°39'816.5
2018-May-14 02:00N 44°38' E 013°33'816.5
2018-May-14 01:30N 44°45' E 013°27'816.5
2018-May-14 01:00N 44°52' E 013°20'816.5
2018-May-14 00:30N 44°58' E 013°14'816.5
2018-May-14 00:01N 45°05' E 013°07'816.1
2018-May-13 23:30N 45°13' E 013°04'815.8
2018-May-13 23:01N 45°21' E 013°02'713.8
2018-May-13 22:31N 45°27' E 013°06'815.6
2018-May-13 22:01N 45°32' E 013°14'815.1
2018-May-13 21:30N 45°35' E 013°24'715.1
2018-May-13 21:01N 45°38' E 013°34'714.4
2018-May-13 20:30N 45°39' E 013°44'1 2.8
2018-May-13 20:00N 45°39' E 013°46'0 0.0
2018-May-13 19:28N 45°39' E 013°46'0 0.0
2018-May-13 18:58N 45°39' E 013°46'0 0.0
2018-May-13 18:28N 45°39' E 013°46'0 0.0
2018-May-13 17:58N 45°39' E 013°46'0 0.0
2018-May-13 17:28N 45°39' E 013°46'0 0.0
2018-May-13 16:55N 45°39' E 013°46'0 0.0
2018-May-13 16:28N 45°39' E 013°46'0 0.0
2018-May-13 16:00N 45°39' E 013°46'0 0.0
2018-May-13 15:31N 45°39' E 013°46'0 0.0
2018-May-13 14:59N 45°39' E 013°46'0 0.0
2018-May-13 14:17N 45°39' E 013°46'0 0.0
2018-May-13 13:59N 45°39' E 013°46'0 0.0
2018-May-13 13:29N 45°39' E 013°46'0 0.0
2018-May-13 12:56N 45°39' E 013°46'0 0.0
2018-May-13 12:26N 45°39' E 013°46'0 0.0
2018-May-13 11:59N 45°39' E 013°46'0 0.0
2018-May-13 11:29N 45°39' E 013°46'0 0.0
2018-May-13 10:58N 45°39' E 013°46'0 0.0
2018-May-13 10:28N 45°39' E 013°46'0 0.0
2018-May-13 09:55N 45°39' E 013°46'0 0.0
2018-May-13 09:28N 45°39' E 013°46'0 0.0
2018-May-13 08:57N 45°39' E 013°46'0 0.0
2018-May-13 08:30N 45°39' E 013°46'0 0.0
2018-May-13 07:54N 45°39' E 013°46'0 0.0
2018-May-13 07:27N 45°39' E 013°46'0 0.0
2018-May-13 06:57N 45°39' E 013°46'0 0.0
2018-May-13 06:21N 45°39' E 013°46'0 0.0
2018-May-13 06:00N 45°39' E 013°46'0 0.0
2018-May-13 05:30N 45°39' E 013°46'0 0.0
2018-May-13 04:56N 45°39' E 013°46'0 0.0
2018-May-13 04:29N 45°39' E 013°46'0 0.0
2018-May-13 03:58N 45°39' E 013°46'0 0.0
2018-May-13 03:28N 45°39' E 013°46'0 0.0
2018-May-13 02:59N 45°39' E 013°46'0 0.0
2018-May-13 02:29N 45°39' E 013°46'0 0.0
2018-May-13 02:00N 45°39' E 013°46'0 0.0
2018-May-13 01:25N 45°39' E 013°46'0 0.0
2018-May-13 00:52N 45°39' E 013°46'0 0.0
2018-May-13 00:30N 45°39' E 013°46'0 0.0
2018-May-12 23:58N 45°39' E 013°46'0 0.0
2018-May-12 23:24N 45°39' E 013°46'0 0.0
2018-May-12 22:53N 45°39' E 013°46'0 0.4
2018-May-12 22:30N 45°39' E 013°46'3 5.9
2018-May-12 22:00N 45°39' E 013°42'4 7.5
2018-May-12 21:30N 45°35' E 013°40'4 7.4
2018-May-12 21:00N 45°33' E 013°44'0 0.0
2018-May-12 20:30N 45°33' E 013°44'0 0.0
2018-May-12 19:59N 45°33' E 013°44'0 0.0
2018-May-12 19:30N 45°33' E 013°44'0 0.0
2018-May-12 19:00N 45°33' E 013°44'0 0.0
2018-May-12 18:29N 45°33' E 013°44'0 0.0
2018-May-12 17:59N 45°33' E 013°44'0 0.0
2018-May-12 17:30N 45°33' E 013°44'0 0.0
2018-May-12 16:59N 45°33' E 013°44'0 0.0
2018-May-12 16:29N 45°33' E 013°44'0 0.0
2018-May-12 15:56N 45°33' E 013°44'0 0.0
2018-May-12 15:21N 45°33' E 013°44'0 0.0
2018-May-12 14:59N 45°33' E 013°44'0 0.0
2018-May-12 14:30N 45°33' E 013°44'0 0.0
2018-May-12 13:54N 45°33' E 013°44'0 0.0
2018-May-12 13:26N 45°33' E 013°44'0 0.0
2018-May-12 12:57N 45°33' E 013°44'0 0.0
2018-May-12 12:29N 45°33' E 013°44'0 0.0
2018-May-12 11:55N 45°33' E 013°44'0 0.0
2018-May-12 11:30N 45°33' E 013°44'0 0.0
2018-May-12 11:00N 45°33' E 013°44'0 0.0
2018-May-12 10:28N 45°33' E 013°44'0 0.0
2018-May-12 09:58N 45°33' E 013°44'0 0.0
2018-May-12 09:23N 45°33' E 013°44'0 0.0
2018-May-12 08:59N 45°33' E 013°44'0 0.0
2018-May-12 08:29N 45°33' E 013°44'0 0.0
2018-May-12 07:58N 45°33' E 013°44'0 0.0
2018-May-12 07:30N 45°33' E 013°44'0 0.0
2018-May-12 06:56N 45°33' E 013°44'0 0.0
2018-May-12 06:28N 45°33' E 013°44'0 0.0
2018-May-12 06:00N 45°33' E 013°44'0 0.0
2018-May-12 05:26N 45°33' E 013°44'0 0.0
2018-May-12 04:58N 45°33' E 013°44'0 0.2
2018-May-12 04:30N 45°33' E 013°44'2 3.0
2018-May-12 04:01N 45°34' E 013°42'3 7.0
2018-May-12 03:31N 45°34' E 013°37'4 8.5
2018-May-12 03:00N 45°34' E 013°31'4 9.0
2018-May-12 02:31N 45°31' E 013°25'4 8.6
2018-May-12 02:01N 45°29' E 013°20'4 8.4
2018-May-12 01:31N 45°26' E 013°16'4 8.4
2018-May-12 01:01N 45°23' E 013°13'4 8.7
2018-May-12 00:30N 45°18' E 013°13'4 8.9
2018-May-12 00:01N 45°14' E 013°15'4 8.7
2018-May-11 23:31N 45°10' E 013°16'4 8.5
2018-May-11 23:00N 45°05' E 013°16'4 8.2
2018-May-11 22:30N 45°01' E 013°17'4 8.4
2018-May-11 22:01N 44°58' E 013°21'4 8.3
2018-May-11 21:31N 44°54' E 013°24'4 8.2
2018-May-11 21:00N 44°51' E 013°27'4 8.1
2018-May-11 20:30N 44°47' E 013°30'4 8.3
2018-May-11 20:00N 44°44' E 013°33'4 8.6
2018-May-11 19:31N 44°40' E 013°37'4 8.6
2018-May-11 19:00N 44°37' E 013°40'4 8.7
2018-May-11 18:31N 44°33' E 013°43'6 8.8
2018-May-11 17:51N 44°28' E 013°47'4 8.7
2018-May-11 17:25N 44°25' E 013°50'4 8.8
2018-May-11 16:59N 44°22' E 013°53'9 9.0
2018-May-11 16:00N 44°15' E 014°00'4 9.0
2018-May-11 15:30N 44°11' E 014°04'9 9.0
2018-May-11 14:30N 44°04' E 014°12'  
Track history (hours):
 
Tides and Currents Weather Stations Pressure Air Temp Water Temp Dewpoint Dewpoint Depression Visibility Wind Speed Wind Dir Waves Ship Positions

Celebrity Mercury

Last reported at 2018-May-21 06:14 UTC. Time now 2018-May-22 13:50 UTC.
Position N 44°06' E 014°02'.

Length 264 m; draft 8.5 m.

Type: Ship. MMSI: 249053000.

Date/timePositionNaut miles runAvg speedWind from/ knotsBaromVisibWave heightAir tempDewpointWater temp
2018-May-21 06:14N 44°06' E 014°02'913.3
2018-May-21 05:35N 44°13' E 013°55'113.5
2018-May-21 05:30N 44°14' E 013°55'713.5
2018-May-21 04:59N 44°20' E 013°49'613.3
2018-May-21 04:30N 44°26' E 013°44'613.1
2018-May-21 04:00N 44°31' E 013°39'613.0
2018-May-21 03:30N 44°36' E 013°34'612.7
2018-May-21 03:00N 44°42' E 013°29'612.5
2018-May-21 02:30N 44°47' E 013°25'612.7
2018-May-21 02:00N 44°52' E 013°20'612.9
2018-May-21 01:30N 44°58' E 013°15'613.0
2018-May-21 01:00N 45°03' E 013°09'713.0
2018-May-21 00:30N 45°08' E 013°04'713.1
2018-May-21 00:00N 45°14' E 013°02'713.1
2018-May-20 23:30N 45°21' E 012°59'612.1
2018-May-20 23:00N 45°26' E 013°04'713.3
2018-May-20 22:30N 45°30' E 013°11'713.2
2018-May-20 22:00N 45°34' E 013°19'713.5
2018-May-20 21:30N 45°36' E 013°28'713.3
2018-May-20 21:00N 45°39' E 013°37'510.6
2018-May-20 20:30N 45°39' E 013°45'1 1.5
2018-May-20 19:56N 45°39' E 013°46'0 0.0
2018-May-20 19:29N 45°39' E 013°46'0 0.0
2018-May-20 18:59N 45°39' E 013°46'0 0.0
2018-May-20 18:26N 45°39' E 013°46'0 0.0
2018-May-20 17:59N 45°39' E 013°46'0 0.0
2018-May-20 17:29N 45°39' E 013°46'0 0.0
2018-May-20 16:59N 45°39' E 013°46'0 0.0
2018-May-20 16:29N 45°39' E 013°46'0 0.0
2018-May-20 15:52N 45°39' E 013°46'0 0.0
2018-May-20 15:28N 45°39' E 013°46'0 0.0
2018-May-20 14:58N 45°39' E 013°46'0 0.0
2018-May-20 14:28N 45°39' E 013°46'0 0.0
2018-May-20 13:55N 45°39' E 013°46'0 0.0
2018-May-20 13:25N 45°39' E 013°46'0 0.0
2018-May-20 12:58N 45°39' E 013°46'0 0.0
2018-May-20 12:28N 45°39' E 013°46'0 0.0
2018-May-20 11:58N 45°39' E 013°46'0 0.0
2018-May-20 11:22N 45°39' E 013°46'0 0.0
2018-May-20 10:58N 45°39' E 013°46'0 0.0
2018-May-20 10:28N 45°39' E 013°46'0 0.0
2018-May-20 09:55N 45°39' E 013°46'0 0.0
2018-May-20 09:25N 45°39' E 013°46'0 0.0
2018-May-20 08:58N 45°39' E 013°46'0 0.0
2018-May-20 08:28N 45°39' E 013°46'0 0.0
2018-May-20 08:00N 45°39' E 013°46'0 0.0
2018-May-20 07:27N 45°39' E 013°46'0 0.0
2018-May-20 07:00N 45°39' E 013°46'0 0.0
2018-May-20 06:30N 45°39' E 013°46'0 0.0
2018-May-20 06:00N 45°39' E 013°46'0 0.0
2018-May-20 05:09N 45°39' E 013°46'0 0.0
2018-May-20 05:00N 45°39' E 013°46'0 0.0
2018-May-20 04:26N 45°39' E 013°46'0 0.0
2018-May-20 03:57N 45°39' E 013°46'0 0.0
2018-May-20 03:25N 45°39' E 013°46'0 0.0
2018-May-20 02:57N 45°39' E 013°46'0 0.0
2018-May-20 02:27N 45°39' E 013°46'0 0.2
2018-May-20 02:00N 45°39' E 013°46'3 5.8
2018-May-20 01:30N 45°39' E 013°42'4 9.0
2018-May-20 01:00N 45°37' E 013°36'815.5
2018-May-20 00:30N 45°33' E 013°26'815.6
2018-May-20 00:00N 45°28' E 013°18'815.7
2018-May-19 23:30N 45°22' E 013°11'816.1
2018-May-19 23:00N 45°14' E 013°11'815.5
2018-May-19 22:30N 45°06' E 013°10'815.9
2018-May-19 22:00N 44°60' E 013°03'815.9
2018-May-19 21:30N 44°54' E 012°56'815.9
2018-May-19 21:00N 44°48' E 012°49'815.9
2018-May-19 20:30N 44°40' E 012°44'56 3.0
2018-May-19 02:08N 44°16' E 013°54'518.7
2018-May-19 01:53N 44°18' E 014°00'818.5
2018-May-19 01:28N 44°20' E 014°10'  
2018-May-14 04:13N 44°07' E 014°01'716.3
2018-May-14 03:48N 44°13' E 013°56'516.4
2018-May-14 03:30N 44°17' E 013°52'816.6
2018-May-14 03:01N 44°24' E 013°46'816.6
2018-May-14 02:30N 44°31' E 013°39'816.5
2018-May-14 02:00N 44°38' E 013°33'816.5
2018-May-14 01:30N 44°45' E 013°27'816.5
2018-May-14 01:00N 44°52' E 013°20'816.5
2018-May-14 00:30N 44°58' E 013°14'816.5
2018-May-14 00:01N 45°05' E 013°07'816.1
2018-May-13 23:30N 45°13' E 013°04'815.8
2018-May-13 23:01N 45°21' E 013°02'713.8
2018-May-13 22:31N 45°27' E 013°06'815.6
2018-May-13 22:01N 45°32' E 013°14'815.1
2018-May-13 21:30N 45°35' E 013°24'715.1
2018-May-13 21:01N 45°38' E 013°34'714.4
2018-May-13 20:30N 45°39' E 013°44'1 2.8
2018-May-13 20:00N 45°39' E 013°46'0 0.0
2018-May-13 19:28N 45°39' E 013°46'0 0.0
2018-May-13 18:58N 45°39' E 013°46'0 0.0
2018-May-13 18:28N 45°39' E 013°46'0 0.0
2018-May-13 17:58N 45°39' E 013°46'0 0.0
2018-May-13 17:28N 45°39' E 013°46'0 0.0
2018-May-13 16:55N 45°39' E 013°46'0 0.0
2018-May-13 16:28N 45°39' E 013°46'0 0.0
2018-May-13 16:00N 45°39' E 013°46'0 0.0
2018-May-13 15:31N 45°39' E 013°46'0 0.0
2018-May-13 14:59N 45°39' E 013°46'0 0.0
2018-May-13 14:17N 45°39' E 013°46'0 0.0
2018-May-13 13:59N 45°39' E 013°46'0 0.0
2018-May-13 13:29N 45°39' E 013°46'0 0.0
2018-May-13 12:56N 45°39' E 013°46'0 0.0
2018-May-13 12:26N 45°39' E 013°46'0 0.0
2018-May-13 11:59N 45°39' E 013°46'0 0.0
2018-May-13 11:29N 45°39' E 013°46'0 0.0
2018-May-13 10:58N 45°39' E 013°46'0 0.0
2018-May-13 10:28N 45°39' E 013°46'0 0.0
2018-May-13 09:55N 45°39' E 013°46'0 0.0
2018-May-13 09:28N 45°39' E 013°46'0 0.0
2018-May-13 08:57N 45°39' E 013°46'0 0.0
2018-May-13 08:30N 45°39' E 013°46'0 0.0
2018-May-13 07:54N 45°39' E 013°46'0 0.0
2018-May-13 07:27N 45°39' E 013°46'0 0.0
2018-May-13 06:57N 45°39' E 013°46'0 0.0
2018-May-13 06:21N 45°39' E 013°46'0 0.0
2018-May-13 06:00N 45°39' E 013°46'0 0.0
2018-May-13 05:30N 45°39' E 013°46'0 0.0
2018-May-13 04:56N 45°39' E 013°46'0 0.0
2018-May-13 04:29N 45°39' E 013°46'0 0.0
2018-May-13 03:58N 45°39' E 013°46'0 0.0
2018-May-13 03:28N 45°39' E 013°46'0 0.0
2018-May-13 02:59N 45°39' E 013°46'0 0.0
2018-May-13 02:29N 45°39' E 013°46'0 0.0
2018-May-13 02:00N 45°39' E 013°46'0 0.0
2018-May-13 01:25N 45°39' E 013°46'0 0.0
2018-May-13 00:52N 45°39' E 013°46'0 0.0
2018-May-13 00:30N 45°39' E 013°46'0 0.0
2018-May-12 23:58N 45°39' E 013°46'0 0.0
2018-May-12 23:24N 45°39' E 013°46'0 0.0
2018-May-12 22:53N 45°39' E 013°46'0 0.4
2018-May-12 22:30N 45°39' E 013°46'3 5.9
2018-May-12 22:00N 45°39' E 013°42'4 7.5
2018-May-12 21:30N 45°35' E 013°40'4 7.4
2018-May-12 21:00N 45°33' E 013°44'0 0.0
2018-May-12 20:30N 45°33' E 013°44'0 0.0
2018-May-12 19:59N 45°33' E 013°44'0 0.0
2018-May-12 19:30N 45°33' E 013°44'0 0.0
2018-May-12 19:00N 45°33' E 013°44'0 0.0
2018-May-12 18:29N 45°33' E 013°44'0 0.0
2018-May-12 17:59N 45°33' E 013°44'0 0.0
2018-May-12 17:30N 45°33' E 013°44'0 0.0
2018-May-12 16:59N 45°33' E 013°44'0 0.0
2018-May-12 16:29N 45°33' E 013°44'0 0.0
2018-May-12 15:56N 45°33' E 013°44'0 0.0
2018-May-12 15:21N 45°33' E 013°44'0 0.0
2018-May-12 14:59N 45°33' E 013°44'0 0.0
2018-May-12 14:30N 45°33' E 013°44'0 0.0
2018-May-12 13:54N 45°33' E 013°44'0 0.0
2018-May-12 13:26N 45°33' E 013°44'0 0.0
2018-May-12 12:57N 45°33' E 013°44'0 0.0
2018-May-12 12:29N 45°33' E 013°44'0 0.0
2018-May-12 11:55N 45°33' E 013°44'0 0.0
2018-May-12 11:30N 45°33' E 013°44'0 0.0
2018-May-12 11:00N 45°33' E 013°44'0 0.0
2018-May-12 10:28N 45°33' E 013°44'0 0.0
2018-May-12 09:58N 45°33' E 013°44'0 0.0
2018-May-12 09:23N 45°33' E 013°44'0 0.0
2018-May-12 08:59N 45°33' E 013°44'0 0.0
2018-May-12 08:29N 45°33' E 013°44'0 0.0
2018-May-12 07:58N 45°33' E 013°44'0 0.0
2018-May-12 07:30N 45°33' E 013°44'0 0.0
2018-May-12 06:56N 45°33' E 013°44'0 0.0
2018-May-12 06:28N 45°33' E 013°44'0 0.0
2018-May-12 06:00N 45°33' E 013°44'0 0.0
2018-May-12 05:26N 45°33' E 013°44'0 0.0
2018-May-12 04:58N 45°33' E 013°44'0 0.2
2018-May-12 04:30N 45°33' E 013°44'2 3.0
2018-May-12 04:01N 45°34' E 013°42'3 7.0
2018-May-12 03:31N 45°34' E 013°37'4 8.5
2018-May-12 03:00N 45°34' E 013°31'4 9.0
2018-May-12 02:31N 45°31' E 013°25'4 8.6
2018-May-12 02:01N 45°29' E 013°20'4 8.4
2018-May-12 01:31N 45°26' E 013°16'4 8.4
2018-May-12 01:01N 45°23' E 013°13'4 8.7
2018-May-12 00:30N 45°18' E 013°13'4 8.9
2018-May-12 00:01N 45°14' E 013°15'4 8.7
2018-May-11 23:31N 45°10' E 013°16'4 8.5
2018-May-11 23:00N 45°05' E 013°16'4 8.2
2018-May-11 22:30N 45°01' E 013°17'4 8.4
2018-May-11 22:01N 44°58' E 013°21'4 8.3
2018-May-11 21:31N 44°54' E 013°24'4 8.2
2018-May-11 21:00N 44°51' E 013°27'4 8.1
2018-May-11 20:30N 44°47' E 013°30'4 8.3
2018-May-11 20:00N 44°44' E 013°33'4 8.6
2018-May-11 19:31N 44°40' E 013°37'4 8.6
2018-May-11 19:00N 44°37' E 013°40'4 8.7
2018-May-11 18:31N 44°33' E 013°43'6 8.8
2018-May-11 17:51N 44°28' E 013°47'4 8.7
2018-May-11 17:25N 44°25' E 013°50'4 8.8
2018-May-11 16:59N 44°22' E 013°53'9 9.0
2018-May-11 16:00N 44°15' E 014°00'4 9.0
2018-May-11 15:30N 44°11' E 014°04'9 9.0
2018-May-11 14:30N 44°04' E 014°12'  

Dump ship's entire track history